Strona główna
METAR-TAF:

METAR-TAF

Lotnisko :

Moorhead Municipal Airport

Moorhead, Minnesota, Stany Zjednoczone

Szerokość geograficzna: 46-50-21N, Długość geograficzna: 096-39-47W, wysokość: 280 m

Aktualna obserwacja pogody

Raport powstał 29 minut temu, godzina 22:15 UTC
Wiatr 3 kt od południowy wschód
Temperatura 11°C
Wilgotność 76%
Ciśnienie 1006 hPa
Widzialność: 8.0 km
Rozproszone chmury na wysokości 1900 ft
zmętnienie

METAR: KJKJ 062215Z AUTO 13003KT 5SM HZ SCT019 11/07 A2970 RMK AO2

czas: 17:44 (22:44 UTC)


TAF: brakujący

Obserwacja i prognoza pogody dla ponad 4000 lotnisk (raport METAR i TAF).

Dostępne stacje oznaczono żółtymi i czerwonymi punktami na mapie.

Najedź kursorem aby zobaczyć nazwę stacji.

Kliknij aby zobaczyć obserwacje i prognozy pogody.

Aby zmienić mapę: kliknij na zielony przycisk z czarnym krzyżykiem, aby powiększyć; na zielony przycisk z myślnikiem, aby pomniejszyć; na zielone strzałki, aby przejść do map sąsiednich.


METAR-TAF: